createdAt,value
2022-07-29T00:00:54.142Z,180.68
2022-07-29T00:03:23.299Z,127.95
2022-07-29T00:05:53.061Z,154.23
2022-07-29T00:08:21.745Z,101.60
2022-07-29T00:10:51.846Z,102.47
2022-07-29T00:13:32.207Z,172.63
2022-07-29T00:16:04.360Z,174.52
2022-07-29T00:18:33.692Z,92.75
2022-07-29T00:21:02.216Z,110.10
2022-07-29T00:23:35.014Z,150.88
2022-07-29T00:26:06.561Z,97.07
2022-07-29T00:28:34.998Z,152.35
2022-07-29T00:31:03.468Z,121.65
2022-07-29T00:33:32.155Z,100.50
2022-07-29T00:35:59.630Z,126.00
2022-07-29T00:38:28.245Z,120.15
2022-07-29T00:40:56.834Z,112.50
2022-07-29T00:43:26.617Z,117.85
2022-07-29T00:45:55.136Z,95.10
2022-07-29T00:48:23.557Z,171.02
2022-07-29T00:50:52.472Z,135.48
2022-07-29T00:53:22.132Z,139.17
2022-07-29T00:55:50.836Z,147.23
2022-07-29T00:58:20.934Z,120.47
2022-07-29T01:00:53.483Z,103.68
2022-07-29T01:03:22.123Z,150.75
2022-07-29T01:05:52.003Z,113.90
2022-07-29T01:08:21.329Z,133.60
2022-07-29T01:10:50.445Z,105.05
2022-07-29T01:13:19.210Z,146.38
2022-07-29T01:15:50.529Z,131.95
2022-07-29T01:18:23.782Z,140.25
2022-07-29T01:21:07.630Z,165.65
2022-07-29T01:23:49.176Z,164.68
2022-07-29T01:26:34.018Z,103.13
2022-07-29T01:29:09.875Z,169.75
2022-07-29T01:31:59.191Z,109.75
2022-07-29T01:34:32.564Z,180.38
2022-07-29T01:37:08.227Z,181.30
2022-07-29T01:39:37.840Z,127.38
2022-07-29T01:42:12.742Z,97.93
2022-07-29T01:44:44.292Z,128.18
2022-07-29T01:47:14.567Z,92.78
2022-07-29T01:49:45.905Z,102.65
2022-07-29T01:52:19.283Z,96.15
2022-07-29T01:54:50.785Z,130.32
2022-07-29T01:57:21.295Z,103.53
2022-07-29T01:59:51.429Z,157.98
2022-07-29T02:02:21.137Z,195.00
2022-07-29T02:04:51.262Z,128.03
2022-07-29T02:07:22.211Z,204.50
2022-07-29T02:09:52.334Z,214.57
2022-07-29T02:12:21.642Z,171.27
2022-07-29T02:14:53.110Z,97.40
2022-07-29T02:17:25.218Z,116.13
2022-07-29T02:19:54.514Z,134.10
2022-07-29T02:22:24.040Z,78.97
2022-07-29T02:24:53.358Z,148.25
2022-07-29T02:27:22.591Z,135.80
2022-07-29T02:29:53.132Z,101.77
2022-07-29T02:32:22.224Z,92.13
2022-07-29T02:34:51.737Z,109.07
2022-07-29T02:37:20.822Z,142.40
2022-07-29T02:39:50.017Z,96.22
2022-07-29T02:42:19.393Z,76.63
2022-07-29T02:44:47.923Z,65.38
2022-07-29T02:47:20.152Z,127.90
2022-07-29T02:49:52.243Z,68.00
2022-07-29T02:52:22.580Z,53.90
2022-07-29T02:54:56.752Z,74.10
2022-07-29T02:57:30.142Z,81.03
2022-07-29T03:00:00.661Z,112.85
2022-07-29T03:02:31.963Z,104.07
2022-07-29T03:05:01.013Z,69.77
2022-07-29T03:07:29.903Z,84.73
2022-07-29T03:09:58.635Z,74.05
2022-07-29T03:12:27.820Z,89.53
2022-07-29T03:14:57.049Z,60.47
2022-07-29T03:17:26.047Z,62.47
2022-07-29T03:19:56.000Z,48.50
2022-07-29T03:22:24.729Z,55.83
2022-07-29T03:24:53.202Z,53.58
2022-07-29T03:27:21.636Z,56.67
2022-07-29T03:29:50.732Z,62.63
2022-07-29T03:32:23.790Z,45.05
2022-07-29T03:34:53.616Z,44.05
2022-07-29T03:37:23.576Z,70.53
2022-07-29T03:39:52.574Z,60.13
2022-07-29T03:42:22.434Z,98.37
2022-07-29T03:44:51.749Z,54.13
2022-07-29T03:47:23.284Z,57.23
2022-07-29T03:50:14.190Z,61.20
2022-07-29T03:52:48.669Z,76.97
2022-07-29T03:55:17.752Z,62.73
2022-07-29T03:57:47.357Z,90.67
2022-07-29T04:00:17.423Z,53.77
2022-07-29T04:02:50.053Z,51.57
2022-07-29T04:05:19.340Z,47.13
2022-07-29T04:07:49.583Z,106.17
2022-07-29T04:10:30.567Z,87.63
2022-07-29T04:13:01.226Z,47.17
2022-07-29T04:15:31.132Z,55.60
2022-07-29T04:18:00.267Z,48.53
2022-07-29T04:20:28.858Z,42.40
2022-07-29T04:22:58.788Z,68.03
2022-07-29T04:25:27.276Z,49.27
2022-07-29T04:28:04.937Z,56.53
2022-07-29T04:30:34.455Z,71.03
2022-07-29T04:33:03.119Z,45.53
2022-07-29T04:35:36.744Z,56.17
2022-07-29T04:38:17.098Z,63.70
2022-07-29T04:40:47.171Z,55.70
2022-07-29T04:43:21.275Z,67.27
2022-07-29T04:45:51.819Z,53.13
2022-07-29T04:48:24.031Z,55.37
2022-07-29T04:50:56.599Z,114.63
2022-07-29T04:53:26.448Z,80.40
2022-07-29T04:55:54.936Z,104.37
2022-07-29T04:58:24.526Z,75.03
2022-07-29T05:00:53.059Z,80.70
2022-07-29T05:03:21.908Z,55.77
2022-07-29T05:05:50.326Z,60.90
2022-07-29T05:08:18.859Z,73.93
2022-07-29T05:10:48.948Z,49.40
2022-07-29T05:13:17.393Z,59.60
2022-07-29T05:15:45.967Z,59.47
2022-07-29T05:18:15.147Z,45.92
2022-07-29T05:20:43.602Z,44.63
2022-07-29T05:23:13.703Z,45.33
2022-07-29T05:25:44.075Z,80.30
2022-07-29T05:28:14.754Z,47.90
2022-07-29T05:30:45.327Z,55.83
2022-07-29T05:33:35.732Z,73.85
2022-07-29T05:36:02.525Z,63.78
2022-07-29T05:38:38.995Z,48.95
2022-07-29T05:41:07.878Z,68.47
2022-07-29T05:43:37.666Z,87.35
2022-07-29T05:46:06.142Z,40.25
2022-07-29T05:48:34.643Z,65.43
2022-07-29T05:51:05.684Z,76.65
2022-07-29T05:53:34.288Z,64.55
2022-07-29T05:56:05.755Z,66.20
2022-07-29T05:58:34.318Z,54.92
2022-07-29T06:01:04.341Z,33.20
2022-07-29T06:03:33.085Z,35.75
2022-07-29T06:06:01.487Z,49.55
2022-07-29T06:08:30.015Z,40.10
2022-07-29T06:10:58.517Z,24.77
2022-07-29T06:13:27.267Z,29.58
2022-07-29T06:15:55.930Z,39.25
2022-07-29T06:18:25.954Z,32.80
2022-07-29T06:20:54.427Z,42.80
2022-07-29T06:23:23.395Z,33.35
2022-07-29T06:25:52.226Z,27.67
2022-07-29T06:28:20.961Z,22.63
2022-07-29T06:30:49.629Z,25.70
2022-07-29T06:33:21.418Z,33.38
2022-07-29T06:35:53.395Z,30.90
2022-07-29T06:38:30.377Z,36.10
2022-07-29T06:41:03.457Z,43.15
2022-07-29T06:43:34.813Z,36.75
2022-07-29T06:46:04.168Z,36.53
2022-07-29T06:48:33.263Z,52.03
2022-07-29T06:51:03.114Z,42.80
2022-07-29T06:53:32.486Z,28.13
2022-07-29T06:56:01.256Z,33.08
2022-07-29T06:58:30.377Z,42.72
2022-07-29T07:01:00.204Z,58.22
2022-07-29T07:03:28.726Z,53.80
2022-07-29T07:05:57.540Z,55.58
2022-07-29T07:08:27.640Z,32.97
2022-07-29T07:10:56.180Z,20.00
2022-07-29T07:13:24.587Z,37.17
2022-07-29T07:15:53.200Z,22.08
2022-07-29T07:18:21.717Z,20.20
2022-07-29T07:20:50.194Z,12.48
2022-07-29T07:23:18.735Z,13.60
2022-07-29T07:25:48.532Z,10.70
2022-07-29T07:28:16.969Z,9.73
2022-07-29T07:30:45.696Z,9.07
2022-07-29T07:33:14.897Z,5.80
2022-07-29T07:35:43.459Z,7.65
2022-07-29T07:38:13.328Z,6.88
2022-07-29T07:40:41.847Z,4.07
2022-07-29T07:43:11.838Z,5.50
2022-07-29T07:45:41.219Z,4.20
2022-07-29T07:48:11.148Z,4.65
2022-07-29T07:50:40.429Z,6.60
2022-07-29T07:53:09.182Z,6.55
2022-07-29T07:56:07.972Z,2.60
2022-07-29T07:58:32.151Z,3.03
2022-07-29T08:01:00.780Z,2.90
2022-07-29T08:03:29.349Z,6.93
2022-07-29T08:05:58.781Z,3.17
2022-07-29T08:08:27.194Z,3.95
2022-07-29T08:10:56.853Z,5.30
2022-07-29T08:13:26.259Z,4.95
2022-07-29T08:16:00.262Z,5.07
2022-07-29T08:18:29.344Z,5.18
2022-07-29T08:20:57.990Z,5.18
2022-07-29T08:23:31.616Z,5.03
2022-07-29T08:26:15.016Z,4.18
2022-07-29T08:28:46.664Z,7.00
2022-07-29T08:31:17.175Z,6.50
2022-07-29T08:33:46.004Z,7.15
2022-07-29T08:36:15.615Z,4.63
2022-07-29T08:38:46.853Z,9.13
2022-07-29T08:41:15.440Z,9.30
2022-07-29T08:43:43.896Z,4.88
2022-07-29T08:46:12.394Z,13.77
2022-07-29T08:48:43.715Z,5.18
2022-07-29T08:51:15.956Z,4.63
2022-07-29T08:53:45.148Z,4.65
2022-07-29T08:56:14.673Z,10.13
2022-07-29T08:58:46.844Z,7.65
2022-07-29T09:01:19.868Z,6.07
2022-07-29T09:03:50.582Z,7.40
2022-07-29T09:06:20.823Z,5.22
2022-07-29T09:08:49.927Z,5.88
2022-07-29T09:11:18.325Z,5.85
2022-07-29T09:13:47.482Z,6.15
2022-07-29T21:08:55.071Z,53.65
